Weather reports worldwide

Advertisment
Pershore college of horticulture, United Kingdom (99059): temperature & dewpoint: 13.02.2018 16:00:00 - 19.02.2018 16:00:00 (GMT)Pershore college of horticulture, United Kingdom (99059): temperature -20cm & temperature -100cm: 13.02.2018 16:00:00 - 19.02.2018 16:00:00 (GMT)Pershore college of horticulture, United Kingdom (99059): precipitation: 13.02.2018 16:00:00 - 19.02.2018 16:00:00 (GMT)
Date & Time tt [°C] td [°C] tt -20cm [°C] tt -100cm [°C] rr [mm]
19.02.2018 16:00:00 - - - - -
19.02.2018 15:00:00 12,4 9,8 - - 0,0
19.02.2018 14:00:00 12,0 10,1 - - 0,0
19.02.2018 13:00:00 11,6 10,5 - - 0,0
19.02.2018 12:00:00 10,1 9,6 - - 0,0
19.02.2018 11:00:00 9,3 9,2 - - 0,0
19.02.2018 10:00:00 8,7 8,7 - - 0,2
19.02.2018 09:00:00 8,1 8,0 5,4 6,2 0,4
19.02.2018 08:00:00 7,8 7,7 - - 0,0
19.02.2018 07:00:00 7,7 7,5 - - 0,0
19.02.2018 06:00:00 7,6 7,4 - - 0,0
19.02.2018 05:00:00 7,4 7,3 - - 0,0
19.02.2018 04:00:00 7,2 7,2 - - 0,0
19.02.2018 03:00:00 7,1 7,0 - - 0,2
19.02.2018 02:00:00 7,1 6,9 - - 0,2
19.02.2018 01:00:00 7,1 6,8 - - 0,2
19.02.2018 00:00:00 6,9 6,5 - - 0,4
18.02.2018 23:00:00 6,9 6,3 - - 0,2
18.02.2018 22:00:00 7,0 6,1 - - 0,0
18.02.2018 21:00:00 7,1 6,0 - - 0,2
18.02.2018 20:00:00 7,6 5,8 - - 0,0
18.02.2018 19:00:00 7,6 5,9 - - 0,0
18.02.2018 18:00:00 8,0 5,8 - - 0,0
18.02.2018 17:00:00 8,4 5,8 - - 0,0
18.02.2018 16:00:00 8,7 5,9 - - 0,0
18.02.2018 15:00:00 8,9 5,9 - - 0,0
18.02.2018 14:00:00 8,9 5,5 - - 0,0
18.02.2018 13:00:00 9,1 5,6 - - 0,0
18.02.2018 12:00:00 8,5 5,4 - - 0,0
18.02.2018 11:00:00 7,6 5,0 - - 0,0
18.02.2018 10:00:00 7,2 5,2 - - 0,0
18.02.2018 09:00:00 6,6 5,0 4,7 6,2 0,0
18.02.2018 08:00:00 6,3 4,8 - - 0,0
18.02.2018 07:00:00 5,3 4,5 - - 0,0
18.02.2018 06:00:00 5,5 4,7 - - 0,0
18.02.2018 05:00:00 5,6 4,7 - - 0,0
18.02.2018 04:00:00 6,4 5,0 - - 0,0
18.02.2018 03:00:00 5,8 4,7 - - 0,0
18.02.2018 02:00:00 6,0 4,6 - - 0,0
18.02.2018 01:00:00 3,9 2,5 - - 0,0
18.02.2018 00:00:00 4,4 2,4 - - 0,0
17.02.2018 23:00:00 4,1 2,4 - - 0,0
17.02.2018 22:00:00 3,4 2,4 - - 0,0
17.02.2018 21:00:00 4,3 2,8 - - 0,0
17.02.2018 20:00:00 5,3 3,3 - - 0,0
17.02.2018 19:00:00 6,2 3,5 - - 0,0
17.02.2018 18:00:00 6,8 3,6 - - 0,0
17.02.2018 17:00:00 8,2 3,9 - - 0,0
17.02.2018 16:00:00 8,7 3,4 - - 0,0
17.02.2018 15:00:00 10,2 4,1 - - 0,0
17.02.2018 14:00:00 8,7 4,5 - - 0,0
17.02.2018 13:00:00 8,5 4,3 - - 0,0
17.02.2018 12:00:00 8,8 4,0 - - 0,0
17.02.2018 11:00:00 8,3 4,8 - - 0,0
17.02.2018 10:00:00 6,8 3,5 - - 0,0
17.02.2018 09:00:00 5,4 3,4 4,2 6,2 0,0
17.02.2018 08:00:00 5,8 3,1 - - 0,0
17.02.2018 07:00:00 4,7 2,3 - - 0,0
17.02.2018 06:00:00 4,4 1,8 - - 0,0
17.02.2018 05:00:00 4,0 2,7 - - 0,0
17.02.2018 04:00:00 4,3 2,5 - - 0,0
17.02.2018 03:00:00 5,0 2,4 - - 0,0
17.02.2018 02:00:00 3,8 1,8 - - 0,0
17.02.2018 01:00:00 5,6 2,4 - - 0,0
17.02.2018 00:00:00 5,1 2,3 - - 0,0
16.02.2018 23:00:00 5,5 2,4 - - 0,0
16.02.2018 22:00:00 4,7 1,9 - - 0,0
16.02.2018 21:00:00 5,0 1,7 - - 0,0
16.02.2018 20:00:00 4,2 1,1 - - 0,0
16.02.2018 19:00:00 4,7 0,4 - - 0,0
16.02.2018 18:00:00 6,1 0,8 - - 0,0
16.02.2018 17:00:00 7,0 1,2 - - 0,0
16.02.2018 16:00:00 8,8 2,0 - - 0,0
16.02.2018 15:00:00 9,2 1,0 - - 0,0
16.02.2018 14:00:00 9,2 2,4 - - 0,0
16.02.2018 13:00:00 9,5 3,1 - - 0,0
16.02.2018 12:00:00 8,8 3,5 - - 0,0
16.02.2018 11:00:00 7,6 3,7 - - 0,0
16.02.2018 10:00:00 6,0 3,0 - - 0,0
16.02.2018 09:00:00 4,5 1,5 3,9 6,2 0,0
16.02.2018 08:00:00 1,6 0,4 - - 0,0
16.02.2018 07:00:00 1,7 0,0 - - 0,0
16.02.2018 06:00:00 1,4 0,1 - - 0,0
16.02.2018 05:00:00 1,7 -0,6 - - 0,0
16.02.2018 04:00:00 2,0 -0,5 - - 0,0
16.02.2018 03:00:00 2,0 0,0 - - 0,0
16.02.2018 02:00:00 0,8 -0,3 - - 0,0
16.02.2018 01:00:00 0,7 -0,2 - - 0,0
16.02.2018 00:00:00 1,0 0,3 - - 0,0
15.02.2018 23:00:00 1,5 -0,3 - - 0,0
15.02.2018 22:00:00 2,9 0,3 - - 0,0
15.02.2018 21:00:00 3,6 0,1 - - 0,0
15.02.2018 20:00:00 3,4 -0,1 - - 0,0
15.02.2018 19:00:00 4,1 -0,1 - - 0,0
15.02.2018 18:00:00 4,4 0,1 - - 0,0
15.02.2018 17:00:00 5,9 0,2 - - 0,0
15.02.2018 16:00:00 8,0 -2,8 - - 0,0
15.02.2018 15:00:00 9,3 -1,5 - - 0,0
15.02.2018 14:00:00 9,8 -2,3 - - 0,0
15.02.2018 13:00:00 9,3 -1,5 - - 0,0
15.02.2018 12:00:00 8,4 -1,0 - - 0,0
15.02.2018 11:00:00 8,1 0,1 - - 0,0
15.02.2018 10:00:00 7,7 2,5 - - 0,0
15.02.2018 09:00:00 6,2 3,8 4,0 6,2 0,0
15.02.2018 08:00:00 4,5 2,9 - - 0,0
15.02.2018 07:00:00 5,2 3,8 - - 0,0
15.02.2018 06:00:00 5,6 4,6 - - 0,0
15.02.2018 05:00:00 6,3 5,2 - - 0,0
15.02.2018 04:00:00 6,8 6,3 - - 0,0
15.02.2018 03:00:00 6,8 6,3 - - 0,0
15.02.2018 02:00:00 6,4 6,2 - - 0,2
15.02.2018 01:00:00 6,0 5,7 - - 0,0
15.02.2018 00:00:00 7,2 6,9 - - 0,0
14.02.2018 23:00:00 7,7 7,4 - - 0,0
14.02.2018 22:00:00 8,3 7,9 - - 0,0
14.02.2018 21:00:00 7,6 7,2 - - 0,2
14.02.2018 20:00:00 7,6 6,7 - - 0,2
14.02.2018 19:00:00 7,3 6,5 - - 0,6
14.02.2018 18:00:00 6,8 5,2 - - 0,0
14.02.2018 17:00:00 6,1 4,4 - - 0,0
14.02.2018 16:00:00 5,8 4,1 - - 0,0
14.02.2018 15:00:00 6,1 3,8 - - 0,0
14.02.2018 14:00:00 5,0 3,3 - - 0,2
14.02.2018 13:00:00 4,6 3,2 - - 0,2
14.02.2018 12:00:00 4,4 2,5 - - 0,2
14.02.2018 11:00:00 4,0 2,2 - - 0,6
14.02.2018 10:00:00 3,8 0,7 - - -
14.02.2018 09:00:00 3,0 -0,8 3,5 6,4 0,0
14.02.2018 08:00:00 2,2 -2,3 - - 0,0
14.02.2018 07:00:00 1,5 -2,2 - - 0,0
14.02.2018 06:00:00 1,6 -2,4 - - 0,0
14.02.2018 05:00:00 0,7 -2,4 - - 0,0
14.02.2018 04:00:00 -0,3 -2,2 - - 0,0
14.02.2018 03:00:00 -1,5 -2,5 - - 0,0
14.02.2018 02:00:00 -2,4 -3,7 - - 0,0
14.02.2018 01:00:00 -1,9 -4,0 - - 0,0
14.02.2018 00:00:00 -0,6 -2,7 - - 0,0
13.02.2018 23:00:00 -0,1 -3,0 - - 0,0
13.02.2018 22:00:00 -0,2 -2,9 - - 0,0
13.02.2018 21:00:00 0,4 -2,4 - - 0,0
13.02.2018 20:00:00 1,2 -1,1 - - 0,0
13.02.2018 19:00:00 3,1 0,2 - - 0,0
13.02.2018 18:00:00 4,0 0,2 - - 0,0
13.02.2018 17:00:00 4,4 1,0 - - 0,0
13.02.2018 16:00:00 4,5 1,3 - - 0,0

tt = temperature
td = dewpoint
tt -20cm = temperature -20cm
tt -100cm = temperature -100cm
rr = precipitation

Next stations